Time;durP1;ratioP1;P1;durP2;ratioP2;P2;SDS_P1;SDS_P2;PMS_P1;PMS_P2;Temp;Humidity;BMP_temperature;BMP_pressure;BME280_temperature;BME280_humidity;BME280_pressure;Samples;Min_cycle;Max_cycle;Signal;HPM_P1;HPM_P2
2023/03/20 00:00:07;;;;;;;0.97;0.97;;;;;;;10.18;96.12;95598.13;4339375;32;20188;-54
2023/03/20 00:02:32;;;;;;;0.73;0.73;;;;;;;10.14;95.33;95597.88;4361864;32;20176;-54
2023/03/20 00:04:58;;;;;;;1.00;1.00;;;;;;;10.08;95.57;95601.66;4361060;32;20193;-55
2023/03/20 00:07:23;;;;;;;0.50;0.50;;;;;;;10.20;95.66;95603.94;4363623;32;20196;-55
2023/03/20 00:09:49;;;;;;;0.60;0.60;;;;;;;10.09;95.92;95608.53;4356933;32;20197;-56
2023/03/20 00:12:21;;;;;;;0.70;0.70;;;;;;;10.07;96.08;95604.59;4357490;32;20326;-54
2023/03/20 00:14:47;;;;;;;1.47;1.47;;;;;;;9.98;96.06;95607.06;4357912;32;20193;-54
2023/03/20 00:17:18;;;;;;;0.50;0.50;;;;;;;10.07;95.97;95597.44;4359998;32;20185;-56
2023/03/20 00:19:44;;;;;;;0.60;0.60;;;;;;;10.09;95.42;95602.44;4354535;32;20224;-56
2023/03/20 00:22:11;;;;;;;7.13;1.00;;;;;;;9.99;96.20;95608.66;4342156;32;20221;-54
2023/03/20 00:24:37;;;;;;;0.70;0.60;;;;;;;10.13;95.56;95608.78;4355425;32;20181;-55
2023/03/20 00:27:02;;;;;;;0.57;0.57;;;;;;;10.08;96.06;95608.81;4347087;32;20208;-54
2023/03/20 00:29:30;;;;;;;0.70;0.70;;;;;;;10.04;95.68;95600.63;4359710;32;20193;-54
2023/03/20 00:31:56;;;;;;;1.00;1.00;;;;;;;10.11;95.49;95606.41;4352516;32;20193;-53
2023/03/20 00:34:25;;;;;;;0.90;0.90;;;;;;;10.06;95.67;95614.41;4354823;32;20192;-54
2023/03/20 00:36:52;;;;;;;0.60;0.60;;;;;;;10.04;96.00;95608.59;4342101;32;20194;-53
2023/03/20 00:39:17;;;;;;;0.53;0.53;;;;;;;9.95;96.06;95602.34;4338015;32;20197;-55
2023/03/20 00:41:48;;;;;;;0.50;0.50;;;;;;;10.16;95.38;95597.59;4341620;32;20212;-52
2023/03/20 00:44:23;;;;;;;0.97;0.97;;;;;;;10.14;95.13;95605.84;4344717;32;20197;-54
2023/03/20 00:46:52;;;;;;;0.97;0.97;;;;;;;10.07;95.44;95605.38;4356171;32;20196;-56
2023/03/20 00:49:21;;;;;;;0.70;0.70;;;;;;;10.04;95.36;95603.28;4348258;32;20212;-55
2023/03/20 00:51:47;;;;;;;0.80;0.80;;;;;;;10.18;95.24;95603.41;4361225;32;20205;-54
2023/03/20 00:54:15;;;;;;;0.50;0.50;;;;;;;10.19;95.00;95603.13;4349034;32;20205;-56
2023/03/20 00:56:45;;;;;;;0.50;0.50;;;;;;;10.18;94.54;95600.78;4357013;32;20201;-55
2023/03/20 00:59:17;;;;;;;0.83;0.77;;;;;;;10.24;94.22;95605.72;4332671;32;20286;-55
2023/03/20 01:01:42;;;;;;;0.43;0.43;;;;;;;10.11;94.39;95605.59;4350873;32;20197;-54
2023/03/20 01:04:14;;;;;;;0.50;0.50;;;;;;;10.17;94.66;95597.31;4352868;32;20196;-55
2023/03/20 01:06:39;;;;;;;0.73;0.70;;;;;;;10.18;94.62;95596.25;4348412;32;20288;-52
2023/03/20 01:09:05;;;;;;;0.30;0.30;;;;;;;10.11;94.04;95601.09;4339239;32;20197;-55
2023/03/20 01:11:31;;;;;;;0.70;0.70;;;;;;;10.03;94.47;95600.91;4357815;32;20218;-52
2023/03/20 01:13:56;;;;;;;0.60;0.60;;;;;;;10.11;94.62;95601.09;4353363;32;20186;-54
2023/03/20 01:16:24;;;;;;;0.63;0.47;;;;;;;10.04;94.22;95600.63;4360829;32;20220;-54
2023/03/20 01:18:51;;;;;;;0.50;0.50;;;;;;;10.04;94.30;95597.19;4353975;32;20231;-55
2023/03/20 01:21:17;;;;;;;0.80;0.80;;;;;;;10.07;94.11;95601.94;4359348;32;20260;-55
2023/03/20 01:23:43;;;;;;;0.30;0.30;;;;;;;10.04;93.89;95603.28;4342000;32;20185;-52
2023/03/20 01:26:17;;;;;;;0.30;0.30;;;;;;;9.82;94.56;95597.69;4356109;32;20247;-54
2023/03/20 01:28:42;;;;;;;0.50;0.50;;;;;;;9.92;94.20;95601.06;4347976;32;20193;-51
2023/03/20 01:31:08;;;;;;;0.40;0.40;;;;;;;9.89;94.91;95614.84;4348531;32;20308;-55
2023/03/20 01:33:33;;;;;;;0.63;0.63;;;;;;;9.95;94.74;95603.13;4360777;32;20204;-53
2023/03/20 01:35:59;;;;;;;0.70;0.70;;;;;;;10.02;94.18;95610.72;4347353;32;20188;-54
2023/03/20 01:38:25;;;;;;;0.27;0.27;;;;;;;10.09;93.80;95607.75;4356000;32;20185;-53
2023/03/20 01:40:59;;;;;;;0.50;0.50;;;;;;;10.04;93.47;95603.28;4360255;32;20193;-53
2023/03/20 01:43:27;;;;;;;0.20;0.20;;;;;;;10.01;94.27;95611.81;4361393;32;20311;-55
2023/03/20 01:45:58;;;;;;;0.30;0.30;;;;;;;9.96;94.15;95609.22;4364081;32;20242;-52
2023/03/20 01:48:32;;;;;;;0.63;0.63;;;;;;;9.91;93.50;95606.62;4344271;32;20208;-55
2023/03/20 01:50:57;;;;;;;0.20;0.20;;;;;;;9.98;93.88;95612.38;4354230;32;20412;-53
2023/03/20 01:53:26;;;;;;;1.43;0.53;;;;;;;10.03;93.40;95609.66;4362392;32;20193;-55
2023/03/20 01:55:55;;;;;;;0.30;0.30;;;;;;;9.97;92.99;95605.50;4360145;32;20184;-55
2023/03/20 01:58:36;;;;;;;0.73;0.73;;;;;;;9.96;93.18;95614.53;4358194;32;20293;-53
2023/03/20 02:01:02;;;;;;;0.40;0.40;;;;;;;9.90;93.95;95605.84;4356831;32;20304;-51
2023/03/20 02:03:28;;;;;;;0.40;0.40;;;;;;;9.94;93.47;95601.56;4352988;32;20188;-55
2023/03/20 02:05:56;;;;;;;0.53;0.53;;;;;;;9.92;93.80;95602.91;4355391;32;20247;-52
2023/03/20 02:08:28;;;;;;;0.77;0.60;;;;;;;9.96;93.08;95606.59;4347119;32;20211;-54
2023/03/20 02:10:56;;;;;;;0.40;0.40;;;;;;;9.99;92.92;95603.34;4355031;32;20285;-54
2023/03/20 02:13:21;;;;;;;0.30;0.30;;;;;;;10.00;92.92;95602.28;4351706;32;20234;-54
2023/03/20 02:16:09;;;;;;;0.43;0.43;;;;;;;10.14;92.51;95605.84;4351445;32;20197;-55
2023/03/20 02:18:35;;;;;;;0.63;0.63;;;;;;;10.03;92.63;95611.53;4336043;32;20229;-53
2023/03/20 02:21:06;;;;;;;0.30;0.30;;;;;;;10.08;92.57;95600.88;4360159;32;20355;-56
2023/03/20 02:23:51;;;;;;;0.40;0.40;;;;;;;9.91;93.29;95599.47;4349229;32;20193;-54
2023/03/20 02:26:50;;;;;;;0.83;0.83;;;;;;;9.92;93.16;95600.25;4357997;32;20297;-53
2023/03/20 02:29:49;;;;;;;0.10;0.10;;;;;;;9.89;93.05;95601.59;4349780;32;20270;-54
2023/03/20 02:32:40;;;;;;;0.43;0.43;;;;;;;9.92;93.68;95605.56;4347899;32;20225;-54
2023/03/20 02:35:05;;;;;;;0.80;0.80;;;;;;;10.08;92.83;95599.00;4362735;32;20288;-53
2023/03/20 02:37:51;;;;;;;0.27;0.27;;;;;;;10.03;92.87;95604.34;4346899;32;20189;-55
2023/03/20 02:40:22;;;;;;;0.40;0.40;;;;;;;10.09;92.58;95602.44;4342730;32;20256;-54
2023/03/20 02:43:12;;;;;;;0.37;0.37;;;;;;;10.04;92.57;95599.84;4349587;32;20227;-54
2023/03/20 02:45:47;;;;;;;0.37;0.37;;;;;;;10.04;92.83;95602.50;4338873;32;20193;-55
2023/03/20 02:48:35;;;;;;;1.03;0.60;;;;;;;10.14;92.14;95595.25;4353231;32;20211;-54
2023/03/20 02:51:29;;;;;;;0.30;0.30;;;;;;;10.22;91.63;95602.56;4363560;32;20299;-52
2023/03/20 02:54:44;;;;;;;0.37;0.37;;;;;;;10.21;91.69;95595.69;4345858;32;20180;-54
2023/03/20 02:57:19;;;;;;;0.43;0.43;;;;;;;10.18;91.60;95596.25;4336571;32;20216;-52
2023/03/20 03:00:08;;;;;;;0.40;0.40;;;;;;;10.13;91.76;95606.91;4363385;32;20232;-55
2023/03/20 03:02:38;;;;;;;0.10;0.10;;;;;;;10.09;91.57;95605.91;4348239;32;20273;-55
2023/03/20 03:05:15;;;;;;;0.20;0.20;;;;;;;10.20;91.63;95607.38;4348581;32;20267;-54
2023/03/20 03:07:45;;;;;;;0.27;0.27;;;;;;;10.30;91.44;95601.97;4359171;32;20220;-55
2023/03/20 03:10:16;;;;;;;0.23;0.23;;;;;;;10.13;92.17;95608.78;4347376;32;20193;-53
2023/03/20 03:12:45;;;;;;;0.03;0.03;;;;;;;10.09;92.40;95613.84;4360014;32;20242;-54
2023/03/20 03:15:37;;;;;;;0.40;0.40;;;;;;;10.13;92.56;95608.78;4337276;32;20185;-53
2023/03/20 03:18:08;;;;;;;0.57;0.57;;;;;;;10.27;92.06;95604.38;4344123;32;20192;-56
2023/03/20 03:20:37;;;;;;;0.50;0.50;;;;;;;10.51;91.16;95610.44;4357689;32;20197;-53
2023/03/20 03:23:03;;;;;;;1.50;0.83;;;;;;;10.32;91.48;95607.78;4355963;32;20189;-53
2023/03/20 03:25:36;;;;;;;1.43;0.70;;;;;;;10.08;92.85;95609.63;4359654;32;20218;-55
2023/03/20 03:28:17;;;;;;;0.50;0.50;;;;;;;10.23;92.81;95608.66;4363224;32;20207;-53
2023/03/20 03:30:44;;;;;;;0.20;0.20;;;;;;;10.25;92.88;95607.31;4353594;32;20192;-53
2023/03/20 03:33:22;;;;;;;0.33;0.33;;;;;;;10.34;92.55;95604.84;4369513;32;20193;-55
2023/03/20 03:35:50;;;;;;;0.43;0.43;;;;;;;10.19;93.16;95605.00;4349458;32;20203;-55
2023/03/20 03:38:30;;;;;;;0.40;0.40;;;;;;;10.21;93.19;95605.50;4347871;32;20233;-55
2023/03/20 03:41:10;;;;;;;0.67;0.60;;;;;;;10.30;92.97;95614.44;4361625;32;20189;-53
2023/03/20 03:44:04;;;;;;;0.10;0.10;;;;;;;10.11;93.43;95613.56;4355945;32;20237;-50
2023/03/20 03:46:51;;;;;;;0.40;0.40;;;;;;;10.05;93.93;95612.81;4356732;32;20208;-54
2023/03/20 03:49:21;;;;;;;0.20;0.20;;;;;;;10.17;93.98;95623.03;4360421;32;20272;-55
2023/03/20 03:51:52;;;;;;;0.77;0.77;;;;;;;10.10;93.55;95620.72;4345666;32;20267;-55
2023/03/20 03:54:30;;;;;;;0.30;0.30;;;;;;;10.03;94.12;95620.25;4336122;32;20204;-54
2023/03/20 03:56:58;;;;;;;0.37;0.37;;;;;;;9.88;94.56;95621.22;4358952;32;20192;-52
2023/03/20 03:59:32;;;;;;;0.40;0.40;;;;;;;9.97;94.41;95621.41;4348520;32;20335;-55
2023/03/20 04:02:00;;;;;;;0.33;0.17;;;;;;;10.00;94.45;95626.91;4358991;32;20188;-53
2023/03/20 04:04:27;;;;;;;0.17;0.17;;;;;;;9.90;94.49;95634.97;4361051;32;20203;-55
2023/03/20 04:06:52;;;;;;;0.30;0.30;;;;;;;9.96;93.99;95625.91;4349931;32;20193;-55
2023/03/20 04:09:17;;;;;;;0.57;0.57;;;;;;;9.99;94.46;95635.16;4342424;32;20280;-56
2023/03/20 04:11:48;;;;;;;0.97;0.50;;;;;;;10.06;93.94;95630.31;4360746;32;20185;-53
2023/03/20 04:14:14;;;;;;;0.20;0.20;;;;;;;9.99;94.59;95645.75;4358092;32;20240;-54
2023/03/20 04:16:39;;;;;;;0.47;0.47;;;;;;;10.02;94.44;95637.22;4349117;32;20304;-55
2023/03/20 04:19:05;;;;;;;0.37;0.37;;;;;;;9.87;94.76;95642.69;4358654;32;20243;-55
2023/03/20 04:21:30;;;;;;;0.40;0.40;;;;;;;9.94;94.73;95646.63;4358523;32;20196;-55
2023/03/20 04:23:56;;;;;;;0.10;0.10;;;;;;;10.01;94.40;95654.22;4350830;32;20185;-54
2023/03/20 04:26:22;;;;;;;0.67;0.67;;;;;;;9.79;94.98;95656.53;4358726;32;20204;-56
2023/03/20 04:28:47;;;;;;;0.83;0.83;;;;;;;9.82;94.69;95656.00;4345640;32;20263;-55
2023/03/20 04:31:13;;;;;;;0.60;0.60;;;;;;;9.84;94.79;95653.84;4354479;32;20189;-57
2023/03/20 04:33:38;;;;;;;0.37;0.33;;;;;;;9.93;94.45;95658.28;4336453;32;20185;-56
2023/03/20 04:36:05;;;;;;;0.30;0.30;;;;;;;9.90;94.13;95658.03;4339424;32;20220;-53
2023/03/20 04:38:30;;;;;;;0.40;0.40;;;;;;;9.93;94.09;95654.84;4357485;32;20185;-53
2023/03/20 04:40:55;;;;;;;0.37;0.37;;;;;;;9.95;93.55;95660.66;4357499;32;20230;-53
2023/03/20 04:43:21;;;;;;;0.40;0.40;;;;;;;9.80;94.14;95666.06;4353881;32;20185;-53
2023/03/20 04:45:46;;;;;;;0.53;0.53;;;;;;;9.85;94.33;95664.19;4352552;32;22139;-56
2023/03/20 04:48:11;;;;;;;0.57;0.50;;;;;;;9.89;93.40;95667.84;4357617;32;20189;-54
2023/03/20 04:50:37;;;;;;;0.57;0.57;;;;;;;10.00;92.76;95668.53;4357514;32;20193;-54
2023/03/20 04:53:02;;;;;;;0.20;0.20;;;;;;;9.92;93.26;95667.31;4357244;32;20181;-55
2023/03/20 04:55:28;;;;;;;0.70;0.70;;;;;;;9.81;93.01;95672.97;4341259;32;20295;-54
2023/03/20 04:57:53;;;;;;;0.13;0.13;;;;;;;9.81;92.45;95665.81;4354489;32;20229;-54
2023/03/20 05:00:19;;;;;;;0.23;0.23;;;;;;;9.73;91.89;95670.94;4355549;32;20222;-54
2023/03/20 05:02:45;;;;;;;0.50;0.50;;;;;;;9.88;91.88;95673.44;4353434;32;20220;-54
2023/03/20 05:05:11;;;;;;;0.57;0.57;;;;;;;9.76;91.33;95683.62;4363814;32;20216;-56
2023/03/20 05:07:36;;;;;;;0.40;0.40;;;;;;;9.74;91.34;95678.59;4358138;32;20284;-55
2023/03/20 05:10:03;;;;;;;0.13;0.13;;;;;;;9.73;90.84;95676.22;4354709;32;20189;-55
2023/03/20 05:12:28;;;;;;;1.70;0.80;;;;;;;9.71;90.82;95686.31;4358715;32;20185;-53
2023/03/20 05:14:54;;;;;;;0.30;0.30;;;;;;;9.72;90.88;95682.59;4354603;32;20322;-55
2023/03/20 05:17:23;;;;;;;0.07;0.07;;;;;;;9.65;91.11;95686.34;4363616;32;20189;-55
2023/03/20 05:19:48;;;;;;;0.57;0.57;;;;;;;9.70;90.77;95684.72;4344183;32;20344;-53
2023/03/20 05:22:15;;;;;;;0.30;0.30;;;;;;;9.64;91.40;95686.63;4361052;32;20277;-55
2023/03/20 05:24:40;;;;;;;0.50;0.50;;;;;;;9.78;90.46;95690.19;4359626;32;20246;-54
2023/03/20 05:27:06;;;;;;;0.57;0.57;;;;;;;9.76;90.75;95695.00;4363943;32;20293;-56
2023/03/20 05:29:31;;;;;;;0.17;0.17;;;;;;;9.71;90.28;95694.25;4339766;32;20205;-55
2023/03/20 05:31:56;;;;;;;0.23;0.23;;;;;;;9.67;90.93;95695.88;4362738;32;20203;-54
2023/03/20 05:34:22;;;;;;;0.30;0.30;;;;;;;9.63;90.83;95696.44;4363737;32;20268;-54
2023/03/20 05:36:47;;;;;;;0.63;0.63;;;;;;;9.71;90.64;95699.56;4362207;32;20257;-54
2023/03/20 05:39:12;;;;;;;0.63;0.63;;;;;;;9.68;90.72;95705.41;4347250;32;20212;-55
2023/03/20 05:41:38;;;;;;;0.30;0.30;;;;;;;9.58;91.04;95708.91;4358594;32;20212;-54
2023/03/20 05:44:04;;;;;;;0.40;0.40;;;;;;;9.54;90.94;95711.34;4362705;32;20204;-54
2023/03/20 05:46:29;;;;;;;1.40;1.17;;;;;;;9.48;91.45;95709.78;4357310;32;20185;-55
2023/03/20 05:48:54;;;;;;;0.77;0.77;;;;;;;9.60;91.37;95718.16;4348875;32;20239;-52
2023/03/20 05:51:20;;;;;;;0.90;0.90;;;;;;;9.61;91.26;95722.41;4366916;32;20242;-52
2023/03/20 05:53:45;;;;;;;0.47;0.47;;;;;;;9.43;92.24;95720.41;4351020;32;20221;-57
2023/03/20 05:56:10;;;;;;;0.77;0.77;;;;;;;9.53;91.34;95720.34;4344173;32;20248;-55
2023/03/20 05:58:36;;;;;;;0.60;0.60;;;;;;;9.50;91.71;95723.56;4348495;32;20236;-55
2023/03/20 06:01:02;;;;;;;0.70;0.70;;;;;;;9.61;91.26;95719.75;4360162;32;20196;-55
2023/03/20 06:03:27;;;;;;;0.40;0.40;;;;;;;9.47;91.97;95720.66;4345327;32;20208;-55
2023/03/20 06:05:52;;;;;;;0.97;0.97;;;;;;;9.53;91.99;95720.34;4360683;32;20201;-54
2023/03/20 06:08:18;;;;;;;1.33;1.23;;;;;;;9.61;91.68;95730.34;4351876;32;20281;-53
2023/03/20 06:10:43;;;;;;;1.10;1.10;;;;;;;9.59;92.22;95735.13;4359688;32;20224;-53
2023/03/20 06:13:08;;;;;;;1.10;1.10;;;;;;;9.72;91.16;95735.56;4352081;32;20223;-53
2023/03/20 06:15:34;;;;;;;0.90;0.90;;;;;;;9.59;91.54;95740.41;4347364;32;20189;-54
2023/03/20 06:17:59;;;;;;;1.27;0.73;;;;;;;9.60;91.73;95738.56;4360459;32;20185;-51
2023/03/20 06:20:25;;;;;;;1.13;1.03;;;;;;;9.57;91.77;95750.50;4341757;32;20190;-55
2023/03/20 06:22:51;;;;;;;1.03;1.03;;;;;;;9.43;92.02;95746.91;4350623;32;20201;-54
2023/03/20 06:25:16;;;;;;;0.70;0.70;;;;;;;9.53;92.00;95749.50;4362140;32;20252;-55
2023/03/20 06:27:42;;;;;;;1.53;1.50;;;;;;;9.70;91.52;95748.31;4357305;32;20200;-53
2023/03/20 06:30:08;;;;;;;1.33;1.33;;;;;;;9.62;91.67;95754.97;4342242;32;20185;-52
2023/03/20 06:32:33;;;;;;;2.77;1.17;;;;;;;9.55;91.55;95759.81;4355930;32;20196;-55
2023/03/20 06:34:59;;;;;;;2.07;1.37;;;;;;;9.48;92.23;95760.09;4359198;32;20291;-53
2023/03/20 06:37:24;;;;;;;1.27;1.17;;;;;;;9.65;91.34;95757.06;4363667;32;20256;-54
2023/03/20 06:39:49;;;;;;;1.57;1.57;;;;;;;9.54;92.03;95760.88;4356572;32;20189;-52
2023/03/20 06:42:15;;;;;;;1.00;1.00;;;;;;;9.58;91.74;95757.38;4358301;32;20233;-54
2023/03/20 06:44:42;;;;;;;0.90;0.90;;;;;;;9.59;91.53;95764.25;4356466;32;20193;-54
2023/03/20 06:47:07;;;;;;;0.90;0.90;;;;;;;9.48;91.30;95762.75;4355371;32;20193;-53
2023/03/20 06:49:32;;;;;;;1.20;1.17;;;;;;;9.58;91.33;95757.38;4343680;32;20289;-54
2023/03/20 06:51:58;;;;;;;1.93;1.83;;;;;;;9.30;91.55;95766.84;4352969;32;20209;-54
2023/03/20 06:54:24;;;;;;;1.23;1.23;;;;;;;9.38;91.98;95762.00;4344306;32;20186;-56
2023/03/20 06:56:49;;;;;;;1.93;1.90;;;;;;;9.43;91.50;95756.69;4362045;32;20219;-56
2023/03/20 06:59:14;;;;;;;1.53;1.53;;;;;;;9.55;91.27;95757.16;4347989;32;20442;-54
2023/03/20 07:01:40;;;;;;;1.33;1.30;;;;;;;9.50;90.86;95759.84;4348439;32;20207;-53
2023/03/20 07:04:06;;;;;;;1.07;1.03;;;;;;;9.59;90.72;95769.56;4355435;32;20259;-52
2023/03/20 07:06:32;;;;;;;1.17;1.17;;;;;;;9.56;90.92;95764.03;4346705;32;20193;-54
2023/03/20 07:08:58;;;;;;;2.70;2.27;;;;;;;9.63;90.89;95753.91;4360083;32;20200;-55
2023/03/20 07:11:23;;;;;;;2.00;1.27;;;;;;;9.68;89.94;95755.72;4360173;32;20293;-54
2023/03/20 07:13:48;;;;;;;1.57;1.50;;;;;;;9.62;89.98;95766.34;4353541;32;20268;-55
2023/03/20 07:16:14;;;;;;;1.33;1.33;;;;;;;9.84;89.61;95762.50;4348495;32;20212;-55
2023/03/20 07:18:39;;;;;;;0.90;0.90;;;;;;;9.73;90.16;95763.66;4358287;32;20197;-53
2023/03/20 07:21:06;;;;;;;0.87;0.87;;;;;;;9.78;90.61;95767.03;4339334;32;20197;-54
2023/03/20 07:23:36;;;;;;;1.50;1.40;;;;;;;9.98;89.73;95771.37;4353205;32;20232;-56
2023/03/20 07:26:02;;;;;;;1.50;1.40;;;;;;;10.02;89.54;95771.63;4354979;32;20328;-56
2023/03/20 07:28:27;;;;;;;1.53;1.43;;;;;;;9.85;89.87;95770.16;4364365;32;20297;-54
2023/03/20 07:30:53;;;;;;;1.03;1.03;;;;;;;9.95;90.07;95774.59;4356747;32;20387;-55
2023/03/20 07:33:19;;;;;;;1.60;1.50;;;;;;;9.94;89.75;95775.69;4342394;32;20287;-55
2023/03/20 07:35:45;;;;;;;2.03;1.93;;;;;;;9.95;89.85;95782.56;4341937;32;20292;-46
2023/03/20 07:38:10;;;;;;;2.13;2.03;;;;;;;11.19;99.38;95771.22;4358916;32;20204;-48
2023/03/20 07:40:36;;;;;;;1.33;1.33;;;;;;;12.49;96.08;95777.44;4346193;32;20201;-45
2023/03/20 07:43:01;;;;;;;1.70;1.60;;;;;;;12.98;87.04;95787.44;4358408;32;20285;-47
2023/03/20 07:45:26;;;;;;;1.00;1.00;;;;;;;13.61;81.14;95786.69;4360767;32;20194;-46
2023/03/20 07:47:52;;;;;;;1.20;1.10;;;;;;;13.95;77.28;95788.03;4361587;32;20192;-48
2023/03/20 07:50:18;;;;;;;1.27;1.27;;;;;;;14.15;74.65;95787.56;4349554;32;20197;-48
2023/03/20 07:52:52;;;;;;;1.50;1.47;;;;;;;14.31;73.64;95796.78;4345162;32;20197;-48
2023/03/20 07:55:17;;;;;;;0.93;0.93;;;;;;;14.47;72.05;95799.09;4350956;32;20248;-47
2023/03/20 07:57:43;;;;;;;1.00;1.00;;;;;;;14.64;70.81;95799.97;4359176;32;20252;-48
2023/03/20 08:00:09;;;;;;;1.13;1.13;;;;;;;14.57;70.48;95801.50;4333915;32;20208;-49
2023/03/20 08:02:34;;;;;;;1.90;1.53;;;;;;;14.69;71.60;95791.84;4358637;32;20197;-45
2023/03/20 08:05:00;;;;;;;1.00;1.00;;;;;;;15.22;76.37;95788.25;4352614;32;20213;-46
2023/03/20 08:07:25;;;;;;;0.77;0.77;;;;;;;15.47;75.43;95790.19;4354190;32;20235;-45
2023/03/20 08:09:51;;;;;;;1.27;1.20;;;;;;;15.65;72.61;95795.56;4346484;32;20204;-47
2023/03/20 08:12:16;;;;;;;1.37;0.77;;;;;;;15.77;71.00;95791.19;4356610;32;20268;-48
2023/03/20 08:14:43;;;;;;;0.43;0.43;;;;;;;15.85;70.34;95794.16;4347649;32;20197;-53
2023/03/20 08:17:08;;;;;;;0.73;0.73;;;;;;;15.59;65.75;95797.59;4355376;32;20249;-55
2023/03/20 08:19:35;;;;;;;1.33;1.27;;;;;;;14.07;68.87;95805.09;4356473;32;20242;-54
2023/03/20 08:22:00;;;;;;;0.90;0.90;;;;;;;12.61;74.91;95804.38;4354595;32;20252;-51
2023/03/20 08:24:26;;;;;;;2.43;1.10;;;;;;;12.11;76.78;95806.03;4357502;32;20216;-50
2023/03/20 08:26:51;;;;;;;0.87;0.87;;;;;;;12.00;77.91;95809.94;4357866;32;20244;-53
2023/03/20 08:29:18;;;;;;;0.93;0.93;;;;;;;11.90;78.22;95810.88;4355405;32;20197;-54
2023/03/20 08:31:43;;;;;;;1.00;1.00;;;;;;;11.92;78.14;95807.91;4356004;32;20204;-50
2023/03/20 08:34:09;;;;;;;1.00;1.00;;;;;;;11.61;79.21;95807.56;4352773;32;20216;-53
2023/03/20 08:36:35;;;;;;;0.70;0.70;;;;;;;11.70;80.35;95795.19;4356169;32;20232;-51
2023/03/20 08:39:00;;;;;;;0.40;0.40;;;;;;;11.77;80.46;95800.19;4353036;32;20213;-55
2023/03/20 08:41:25;;;;;;;0.93;0.93;;;;;;;11.76;80.71;95795.91;4342679;32;20208;-51
2023/03/20 08:43:51;;;;;;;0.67;0.67;;;;;;;11.77;79.18;95790.34;4355219;32;20231;-54
2023/03/20 08:46:16;;;;;;;0.80;0.80;;;;;;;11.90;78.97;95789.59;4358745;32;20196;-52
2023/03/20 08:48:41;;;;;;;1.70;1.27;;;;;;;11.88;79.16;95788.31;4359005;32;20192;-53
2023/03/20 08:51:07;;;;;;;0.67;0.67;;;;;;;11.83;78.58;95789.19;4342727;32;20274;-54
2023/03/20 08:53:32;;;;;;;0.27;0.20;;;;;;;11.78;78.51;95780.50;4359897;32;20215;-51
2023/03/20 08:55:58;;;;;;;0.50;0.50;;;;;;;11.77;78.54;95789.56;4359030;32;20197;-55
2023/03/20 08:58:23;;;;;;;0.50;0.50;;;;;;;11.94;77.83;95795.13;4350560;32;20208;-53
2023/03/20 09:00:48;;;;;;;0.50;0.50;;;;;;;11.81;77.33;95794.00;4357648;32;20274;-57
2023/03/20 09:03:17;;;;;;;4.83;0.80;;;;;;;11.83;77.68;95789.19;4346177;32;20189;-54
2023/03/20 09:05:43;;;;;;;1.00;1.00;;;;;;;11.76;78.85;95793.25;4352492;32;20200;-53
2023/03/20 09:08:08;;;;;;;1.07;1.07;;;;;;;11.84;78.75;95800.63;4360824;32;20193;-51
2023/03/20 09:10:34;;;;;;;0.70;0.53;;;;;;;11.85;78.63;95799.50;4361814;32;20197;-56
2023/03/20 09:12:59;;;;;;;1.80;0.90;;;;;;;11.95;76.76;95791.41;4346825;32;20198;-53
2023/03/20 09:15:25;;;;;;;0.73;0.73;;;;;;;11.90;78.50;95794.13;4353348;32;20222;-48
2023/03/20 09:17:51;;;;;;;1.20;1.10;;;;;;;11.75;78.74;95797.00;4343360;32;20196;-52
2023/03/20 09:20:16;;;;;;;10.60;0.80;;;;;;;11.89;79.12;95795.19;4363014;32;20228;-51
2023/03/20 09:22:43;;;;;;;1.07;1.07;;;;;;;12.02;78.46;95797.16;4359945;32;20216;-51
2023/03/20 09:25:09;;;;;;;0.30;0.30;;;;;;;12.21;77.07;95797.91;4346227;32;20260;-52
2023/03/20 09:27:35;;;;;;;0.87;0.87;;;;;;;12.33;76.88;95797.41;4359688;32;20232;-50
2023/03/20 09:30:01;;;;;;;0.90;0.90;;;;;;;12.77;76.04;95798.78;4359194;32;20240;-52
2023/03/20 09:32:26;;;;;;;0.70;0.70;;;;;;;12.46;75.64;95796.69;4357907;32;20212;-54
2023/03/20 09:34:51;;;;;;;0.60;0.60;;;;;;;12.56;75.16;95801.00;4359877;32;20200;-54
2023/03/20 09:37:17;;;;;;;0.33;0.33;;;;;;;12.51;74.75;95801.09;4361791;32;20189;-50
2023/03/20 09:39:42;;;;;;;0.63;0.63;;;;;;;12.33;75.91;95803.53;4353461;32;20249;-54
2023/03/20 09:42:24;;;;;;;0.50;0.50;;;;;;;12.15;76.91;95812.34;4348128;32;20292;-51
2023/03/20 09:45:07;;;;;;;0.90;0.90;;;;;;;12.71;75.43;95803.41;4361057;32;20255;-53
2023/03/20 09:48:08;;;;;;;1.50;1.40;;;;;;;12.71;74.14;95800.72;4357402;32;20185;-54
2023/03/20 09:50:39;;;;;;;0.40;0.40;;;;;;;12.81;74.84;95797.91;4352671;32;20219;-54
2023/03/20 09:53:19;;;;;;;0.27;0.27;;;;;;;12.61;74.84;95800.94;4345798;32;20208;-50
2023/03/20 09:55:47;;;;;;;0.30;0.30;;;;;;;12.51;75.21;95804.56;4354225;32;20189;-54
2023/03/20 09:58:37;;;;;;;0.90;0.90;;;;;;;12.71;73.89;95798.06;4350600;32;20201;-53
2023/03/20 10:01:05;;;;;;;0.53;0.53;;;;;;;12.59;75.22;95789.78;4356927;32;20251;-52
2023/03/20 10:03:51;;;;;;;0.40;0.40;;;;;;;12.86;74.01;95787.16;4350410;32;20189;-51
2023/03/20 10:06:17;;;;;;;0.63;0.63;;;;;;;13.04;74.12;95788.91;4347343;32;20224;-51
2023/03/20 10:08:44;;;;;;;0.83;0.83;;;;;;;12.85;73.47;95782.91;4352615;32;20196;-51
2023/03/20 10:11:42;;;;;;;0.43;0.43;;;;;;;12.65;73.16;95777.97;4352598;32;20181;-53
2023/03/20 10:14:23;;;;;;;0.43;0.43;;;;;;;12.77;73.23;95783.59;4357169;32;20244;-52
2023/03/20 10:16:57;;;;;;;0.50;0.50;;;;;;;12.81;73.25;95776.59;4337654;32;20185;-55
2023/03/20 10:19:23;;;;;;;0.53;0.53;;;;;;;12.96;73.16;95784.28;4354291;32;20216;-53
2023/03/20 10:22:16;;;;;;;0.53;0.53;;;;;;;13.19;72.64;95776.41;4345972;32;20193;-52
2023/03/20 10:24:51;;;;;;;0.50;0.50;;;;;;;13.02;72.84;95777.78;4348531;32;20201;-53
2023/03/20 10:27:24;;;;;;;1.07;1.07;;;;;;;13.06;73.14;95784.09;4344900;32;20228;-52
2023/03/20 10:29:58;;;;;;;0.27;0.27;;;;;;;13.04;73.11;95772.94;4340731;32;20298;-50
2023/03/20 10:32:33;;;;;;;0.30;0.30;;;;;;;13.14;71.42;95779.13;4362272;32;20184;-51
2023/03/20 10:35:27;;;;;;;0.47;0.47;;;;;;;12.94;71.35;95775.78;4349832;32;20212;-54
2023/03/20 10:38:37;;;;;;;0.20;0.20;;;;;;;12.85;73.01;95772.25;4362265;32;20192;-57
2023/03/20 10:41:12;;;;;;;0.40;0.40;;;;;;;13.09;72.20;95772.06;4338894;32;20205;-55
2023/03/20 10:43:39;;;;;;;0.20;0.20;;;;;;;13.05;71.24;95761.19;4355543;32;20192;-52
2023/03/20 10:46:12;;;;;;;0.30;0.30;;;;;;;13.03;72.40;95760.72;4355696;32;20189;-52
2023/03/20 10:48:54;;;;;;;0.10;0.10;;;;;;;13.06;71.25;95762.78;4350176;32;20188;-51
2023/03/20 10:51:25;;;;;;;0.63;0.50;;;;;;;13.24;69.34;95757.66;4351442;32;20317;-53
2023/03/20 10:54:00;;;;;;;0.10;0.10;;;;;;;13.30;68.38;95749.22;4358012;32;20181;-53
2023/03/20 10:56:38;;;;;;;0.10;0.10;;;;;;;13.39;66.81;95750.09;4360070;32;20193;-52
2023/03/20 10:59:18;;;;;;;0.17;0.17;;;;;;;13.26;66.89;95747.50;4360428;32;20242;-54
2023/03/20 11:01:43;;;;;;;0.13;0.13;;;;;;;13.14;68.79;95747.16;4352034;32;20232;-52
2023/03/20 11:04:09;;;;;;;0.47;0.47;;;;;;;13.30;68.75;95743.91;4344322;32;20197;-51
2023/03/20 11:06:45;;;;;;;0.20;0.20;;;;;;;13.60;68.07;95750.44;4339422;32;20182;-51
2023/03/20 11:09:18;;;;;;;0.20;0.20;;;;;;;13.61;63.95;95745.91;4357123;32;20204;-54
2023/03/20 11:11:46;;;;;;;0.20;0.20;;;;;;;13.49;64.97;95748.31;4360444;32;20209;-53
2023/03/20 11:14:21;;;;;;;0.20;0.20;;;;;;;13.38;65.15;95747.75;4341195;32;20206;-52
2023/03/20 11:16:51;;;;;;;0.10;0.10;;;;;;;13.35;65.12;95745.69;4353866;32;20228;-52
2023/03/20 11:19:20;;;;;;;0.10;0.10;;;;;;;13.12;64.72;95733.34;4356421;32;20244;-52
2023/03/20 11:21:51;;;;;;;0.23;0.17;;;;;;;13.31;66.20;95739.38;4349928;32;20207;-50
2023/03/20 11:24:44;;;;;;;0.10;0.10;;;;;;;13.42;64.75;95740.72;4349571;32;20237;-52
2023/03/20 11:27:16;;;;;;;0.20;0.20;;;;;;;13.43;64.61;95738.84;4356720;32;20243;-51
2023/03/20 11:29:45;;;;;;;1.20;0.20;;;;;;;13.22;63.61;95736.62;4354162;32;20204;-51
2023/03/20 11:32:44;;;;;;;0.00;0.00;;;;;;;13.15;65.68;95736.25;4355831;32;20185;-54
2023/03/20 11:35:25;;;;;;;0.30;0.30;;;;;;;13.15;66.99;95730.91;4332423;32;20178;-52
2023/03/20 11:37:53;;;;;;;0.00;0.00;;;;;;;13.08;65.52;95739.31;4343670;32;20265;-51
2023/03/20 11:40:29;;;;;;;0.20;0.20;;;;;;;12.93;66.58;95742.25;4359828;32;20193;-52
2023/03/20 11:43:22;;;;;;;1.90;0.30;;;;;;;13.05;66.69;95736.44;4358192;32;20211;-52
2023/03/20 11:45:53;;;;;;;0.20;0.20;;;;;;;13.16;65.30;95735.16;4344825;32;20240;-53
2023/03/20 11:48:21;;;;;;;0.53;0.30;;;;;;;13.16;65.55;95729.03;4351610;32;20237;-50